sensor_id;sensor_type;location;lat;lon;timestamp;P1;durP1;ratioP1;P2;durP2;ratioP2
6432;SDS011;3249;42.690;23.260;2024-02-04T00:01:51;5.37;;;4.73;;
6432;SDS011;3249;42.690;23.260;2024-02-04T00:04:20;5.10;;;4.60;;
6432;SDS011;3249;42.690;23.260;2024-02-04T00:06:51;5.07;;;4.67;;
6432;SDS011;3249;42.690;23.260;2024-02-04T00:09:23;5.30;;;4.80;;
6432;SDS011;3249;42.690;23.260;2024-02-04T00:11:54;5.77;;;4.83;;
6432;SDS011;3249;42.690;23.260;2024-02-04T00:14:24;5.50;;;4.93;;
6432;SDS011;3249;42.690;23.260;2024-02-04T00:16:53;5.17;;;4.77;;
6432;SDS011;3249;42.690;23.260;2024-02-04T00:19:25;5.30;;;4.80;;
6432;SDS011;3249;42.690;23.260;2024-02-04T00:21:55;6.47;;;5.47;;
6432;SDS011;3249;42.690;23.260;2024-02-04T00:24:26;5.83;;;5.33;;
6432;SDS011;3249;42.690;23.260;2024-02-04T00:26:56;5.63;;;4.97;;
6432;SDS011;3249;42.690;23.260;2024-02-04T00:29:25;5.73;;;5.00;;
6432;SDS011;3249;42.690;23.260;2024-02-04T00:31:54;6.07;;;4.97;;
6432;SDS011;3249;42.690;23.260;2024-02-04T00:34:23;5.80;;;4.87;;
6432;SDS011;3249;42.690;23.260;2024-02-04T00:36:53;5.67;;;5.13;;
6432;SDS011;3249;42.690;23.260;2024-02-04T00:39:22;6.33;;;5.70;;
6432;SDS011;3249;42.690;23.260;2024-02-04T00:41:54;5.97;;;5.43;;
6432;SDS011;3249;42.690;23.260;2024-02-04T00:44:24;5.57;;;5.03;;
6432;SDS011;3249;42.690;23.260;2024-02-04T00:46:53;5.27;;;4.80;;
6432;SDS011;3249;42.690;23.260;2024-02-04T00:49:22;5.53;;;5.13;;
6432;SDS011;3249;42.690;23.260;2024-02-04T00:51:52;5.77;;;5.27;;
6432;SDS011;3249;42.690;23.260;2024-02-04T00:54:21;5.43;;;4.97;;
6432;SDS011;3249;42.690;23.260;2024-02-04T00:56:50;5.07;;;4.70;;
6432;SDS011;3249;42.690;23.260;2024-02-04T00:59:24;5.67;;;5.17;;
6432;SDS011;3249;42.690;23.260;2024-02-04T01:01:53;5.37;;;5.03;;
6432;SDS011;3249;42.690;23.260;2024-02-04T01:04:24;4.93;;;4.53;;
6432;SDS011;3249;42.690;23.260;2024-02-04T01:06:53;5.17;;;4.67;;
6432;SDS011;3249;42.690;23.260;2024-02-04T01:09:24;5.67;;;4.70;;
6432;SDS011;3249;42.690;23.260;2024-02-04T01:11:53;4.60;;;4.20;;
6432;SDS011;3249;42.690;23.260;2024-02-04T01:14:25;4.90;;;4.40;;
6432;SDS011;3249;42.690;23.260;2024-02-04T01:16:54;5.20;;;4.70;;
6432;SDS011;3249;42.690;23.260;2024-02-04T01:19:23;5.17;;;4.67;;
6432;SDS011;3249;42.690;23.260;2024-02-04T01:21:52;5.57;;;4.90;;
6432;SDS011;3249;42.690;23.260;2024-02-04T01:24:22;5.07;;;4.60;;
6432;SDS011;3249;42.690;23.260;2024-02-04T01:26:51;5.57;;;5.07;;
6432;SDS011;3249;42.690;23.260;2024-02-04T01:29:20;5.03;;;4.60;;
6432;SDS011;3249;42.690;23.260;2024-02-04T01:31:52;5.67;;;5.17;;
6432;SDS011;3249;42.690;23.260;2024-02-04T01:34:21;5.10;;;4.70;;
6432;SDS011;3249;42.690;23.260;2024-02-04T01:36:50;4.87;;;4.47;;
6432;SDS011;3249;42.690;23.260;2024-02-04T01:39:21;4.60;;;4.20;;
6432;SDS011;3249;42.690;23.260;2024-02-04T01:41:51;4.60;;;4.20;;
6432;SDS011;3249;42.690;23.260;2024-02-04T01:44:21;5.17;;;4.63;;
6432;SDS011;3249;42.690;23.260;2024-02-04T01:46:54;4.53;;;4.13;;
6432;SDS011;3249;42.690;23.260;2024-02-04T01:49:23;9.53;;;4.90;;
6432;SDS011;3249;42.690;23.260;2024-02-04T01:51:52;4.23;;;3.90;;
6432;SDS011;3249;42.690;23.260;2024-02-04T01:54:22;4.87;;;4.33;;
6432;SDS011;3249;42.690;23.260;2024-02-04T01:56:54;5.17;;;4.20;;
6432;SDS011;3249;42.690;23.260;2024-02-04T01:59:24;5.43;;;5.00;;
6432;SDS011;3249;42.690;23.260;2024-02-04T02:01:58;4.93;;;4.40;;
6432;SDS011;3249;42.690;23.260;2024-02-04T02:04:29;4.73;;;4.40;;
6432;SDS011;3249;42.690;23.260;2024-02-04T02:06:59;5.30;;;4.80;;
6432;SDS011;3249;42.690;23.260;2024-02-04T02:09:28;4.43;;;4.00;;
6432;SDS011;3249;42.690;23.260;2024-02-04T02:12:00;5.13;;;4.67;;
6432;SDS011;3249;42.690;23.260;2024-02-04T02:14:38;4.63;;;4.20;;
6432;SDS011;3249;42.690;23.260;2024-02-04T02:17:15;4.60;;;4.20;;
6432;SDS011;3249;42.690;23.260;2024-02-04T02:19:50;4.63;;;4.33;;
6432;SDS011;3249;42.690;23.260;2024-02-04T02:22:26;4.97;;;4.47;;
6432;SDS011;3249;42.690;23.260;2024-02-04T02:25:00;5.70;;;4.63;;
6432;SDS011;3249;42.690;23.260;2024-02-04T02:27:33;4.60;;;4.20;;
6432;SDS011;3249;42.690;23.260;2024-02-04T02:30:02;5.43;;;4.57;;
6432;SDS011;3249;42.690;23.260;2024-02-04T02:32:33;4.83;;;4.43;;
6432;SDS011;3249;42.690;23.260;2024-02-04T02:35:02;5.17;;;4.23;;
6432;SDS011;3249;42.690;23.260;2024-02-04T02:37:32;4.63;;;4.23;;
6432;SDS011;3249;42.690;23.260;2024-02-04T02:40:12;7.53;;;4.93;;
6432;SDS011;3249;42.690;23.260;2024-02-04T02:42:49;4.53;;;4.13;;
6432;SDS011;3249;42.690;23.260;2024-02-04T02:45:21;5.63;;;4.10;;
6432;SDS011;3249;42.690;23.260;2024-02-04T02:47:52;5.13;;;4.63;;
6432;SDS011;3249;42.690;23.260;2024-02-04T02:50:23;5.17;;;4.67;;
6432;SDS011;3249;42.690;23.260;2024-02-04T02:52:54;5.50;;;4.43;;
6432;SDS011;3249;42.690;23.260;2024-02-04T02:55:26;5.33;;;4.87;;
6432;SDS011;3249;42.690;23.260;2024-02-04T02:57:55;6.07;;;4.47;;
6432;SDS011;3249;42.690;23.260;2024-02-04T03:00:24;5.27;;;4.77;;
6432;SDS011;3249;42.690;23.260;2024-02-04T03:02:53;5.23;;;4.70;;
6432;SDS011;3249;42.690;23.260;2024-02-04T03:05:22;5.37;;;4.90;;
6432;SDS011;3249;42.690;23.260;2024-02-04T03:07:53;4.63;;;4.33;;
6432;SDS011;3249;42.690;23.260;2024-02-04T03:10:22;4.87;;;4.53;;
6432;SDS011;3249;42.690;23.260;2024-02-04T03:12:54;4.70;;;4.30;;
6432;SDS011;3249;42.690;23.260;2024-02-04T03:15:23;5.13;;;4.33;;
6432;SDS011;3249;42.690;23.260;2024-02-04T03:17:52;5.33;;;4.23;;
6432;SDS011;3249;42.690;23.260;2024-02-04T03:20:23;4.50;;;4.20;;
6432;SDS011;3249;42.690;23.260;2024-02-04T03:22:52;4.50;;;4.10;;
6432;SDS011;3249;42.690;23.260;2024-02-04T03:25:21;4.73;;;4.23;;
6432;SDS011;3249;42.690;23.260;2024-02-04T03:27:55;4.47;;;4.17;;
6432;SDS011;3249;42.690;23.260;2024-02-04T03:30:24;4.63;;;4.23;;
6432;SDS011;3249;42.690;23.260;2024-02-04T03:32:54;6.40;;;4.70;;
6432;SDS011;3249;42.690;23.260;2024-02-04T03:35:24;4.90;;;4.40;;
6432;SDS011;3249;42.690;23.260;2024-02-04T03:37:53;4.20;;;3.80;;
6432;SDS011;3249;42.690;23.260;2024-02-04T03:40:22;4.33;;;4.00;;
6432;SDS011;3249;42.690;23.260;2024-02-04T03:42:51;4.37;;;3.97;;
6432;SDS011;3249;42.690;23.260;2024-02-04T03:45:23;5.23;;;4.83;;
6432;SDS011;3249;42.690;23.260;2024-02-04T03:47:54;4.80;;;4.40;;
6432;SDS011;3249;42.690;23.260;2024-02-04T03:50:23;4.87;;;4.37;;
6432;SDS011;3249;42.690;23.260;2024-02-04T03:52:52;4.80;;;4.50;;
6432;SDS011;3249;42.690;23.260;2024-02-04T03:55:23;4.40;;;4.10;;
6432;SDS011;3249;42.690;23.260;2024-02-04T03:57:52;4.60;;;4.27;;
6432;SDS011;3249;42.690;23.260;2024-02-04T04:00:26;4.67;;;4.30;;
6432;SDS011;3249;42.690;23.260;2024-02-04T04:02:56;4.27;;;4.07;;
6432;SDS011;3249;42.690;23.260;2024-02-04T04:05:25;4.60;;;4.30;;
6432;SDS011;3249;42.690;23.260;2024-02-04T04:07:54;4.23;;;3.90;;
6432;SDS011;3249;42.690;23.260;2024-02-04T04:10:23;3.80;;;3.53;;
6432;SDS011;3249;42.690;23.260;2024-02-04T04:12:52;4.30;;;4.00;;
6432;SDS011;3249;42.690;23.260;2024-02-04T04:15:22;4.57;;;4.27;;
6432;SDS011;3249;42.690;23.260;2024-02-04T04:17:54;4.93;;;4.60;;
6432;SDS011;3249;42.690;23.260;2024-02-04T04:20:23;4.23;;;3.87;;
6432;SDS011;3249;42.690;23.260;2024-02-04T04:22:52;4.20;;;4.00;;
6432;SDS011;3249;42.690;23.260;2024-02-04T04:25:21;4.63;;;4.33;;
6432;SDS011;3249;42.690;23.260;2024-02-04T04:27:52;5.00;;;4.60;;
6432;SDS011;3249;42.690;23.260;2024-02-04T04:30:23;4.60;;;4.23;;
6432;SDS011;3249;42.690;23.260;2024-02-04T04:32:56;3.77;;;3.47;;
6432;SDS011;3249;42.690;23.260;2024-02-04T04:35:26;4.20;;;4.00;;
6432;SDS011;3249;42.690;23.260;2024-02-04T04:37:55;4.10;;;3.90;;
6432;SDS011;3249;42.690;23.260;2024-02-04T04:40:25;4.77;;;4.40;;
6432;SDS011;3249;42.690;23.260;2024-02-04T04:42:54;4.20;;;3.90;;
6432;SDS011;3249;42.690;23.260;2024-02-04T04:45:23;3.57;;;3.27;;
6432;SDS011;3249;42.690;23.260;2024-02-04T04:47:55;3.47;;;3.27;;
6432;SDS011;3249;42.690;23.260;2024-02-04T04:50:24;3.67;;;3.37;;
6432;SDS011;3249;42.690;23.260;2024-02-04T04:52:54;3.60;;;3.40;;
6432;SDS011;3249;42.690;23.260;2024-02-04T04:55:23;3.43;;;3.20;;
6432;SDS011;3249;42.690;23.260;2024-02-04T04:57:53;3.40;;;3.20;;
6432;SDS011;3249;42.690;23.260;2024-02-04T05:00:22;3.47;;;3.27;;
6432;SDS011;3249;42.690;23.260;2024-02-04T05:02:51;3.57;;;3.27;;
6432;SDS011;3249;42.690;23.260;2024-02-04T05:05:23;3.50;;;3.20;;
6432;SDS011;3249;42.690;23.260;2024-02-04T05:07:52;3.97;;;3.50;;
6432;SDS011;3249;42.690;23.260;2024-02-04T05:10:21;3.50;;;3.27;;
6432;SDS011;3249;42.690;23.260;2024-02-04T05:12:51;4.20;;;3.90;;
6432;SDS011;3249;42.690;23.260;2024-02-04T05:15:20;3.83;;;3.63;;
6432;SDS011;3249;42.690;23.260;2024-02-04T05:17:50;4.40;;;4.10;;
6432;SDS011;3249;42.690;23.260;2024-02-04T05:20:22;3.70;;;3.40;;
6432;SDS011;3249;42.690;23.260;2024-02-04T05:22:51;3.80;;;3.50;;
6432;SDS011;3249;42.690;23.260;2024-02-04T05:25:20;3.63;;;3.43;;
6432;SDS011;3249;42.690;23.260;2024-02-04T05:27:51;4.23;;;3.83;;
6432;SDS011;3249;42.690;23.260;2024-02-04T05:30:21;3.57;;;3.37;;
6432;SDS011;3249;42.690;23.260;2024-02-04T05:32:50;4.13;;;3.83;;
6432;SDS011;3249;42.690;23.260;2024-02-04T05:35:22;3.87;;;3.57;;
6432;SDS011;3249;42.690;23.260;2024-02-04T05:37:51;4.40;;;4.00;;
6432;SDS011;3249;42.690;23.260;2024-02-04T05:40:20;4.70;;;4.30;;
6432;SDS011;3249;42.690;23.260;2024-02-04T05:42:50;3.83;;;3.57;;
6432;SDS011;3249;42.690;23.260;2024-02-04T05:45:20;5.43;;;4.93;;
6432;SDS011;3249;42.690;23.260;2024-02-04T05:47:49;4.30;;;3.90;;
6432;SDS011;3249;42.690;23.260;2024-02-04T05:50:23;4.87;;;4.27;;
6432;SDS011;3249;42.690;23.260;2024-02-04T05:52:53;4.33;;;3.93;;
6432;SDS011;3249;42.690;23.260;2024-02-04T05:55:23;4.27;;;4.03;;
6432;SDS011;3249;42.690;23.260;2024-02-04T05:57:52;4.20;;;3.80;;
6432;SDS011;3249;42.690;23.260;2024-02-04T06:00:21;3.77;;;3.47;;
6432;SDS011;3249;42.690;23.260;2024-02-04T06:02:52;4.53;;;4.13;;
6432;SDS011;3249;42.690;23.260;2024-02-04T06:05:24;4.60;;;4.20;;
6432;SDS011;3249;42.690;23.260;2024-02-04T06:07:53;5.00;;;4.17;;
6432;SDS011;3249;42.690;23.260;2024-02-04T06:10:22;4.07;;;3.70;;
6432;SDS011;3249;42.690;23.260;2024-02-04T06:12:51;4.23;;;3.87;;
6432;SDS011;3249;42.690;23.260;2024-02-04T06:15:20;4.87;;;4.43;;
6432;SDS011;3249;42.690;23.260;2024-02-04T06:17:50;3.97;;;3.67;;
6432;SDS011;3249;42.690;23.260;2024-02-04T06:20:20;4.80;;;4.40;;
6432;SDS011;3249;42.690;23.260;2024-02-04T06:22:51;4.27;;;3.70;;
6432;SDS011;3249;42.690;23.260;2024-02-04T06:25:21;3.90;;;3.50;;
6432;SDS011;3249;42.690;23.260;2024-02-04T06:27:50;4.23;;;3.83;;
6432;SDS011;3249;42.690;23.260;2024-02-04T06:30:19;4.13;;;3.83;;
6432;SDS011;3249;42.690;23.260;2024-02-04T06:32:49;4.40;;;4.10;;
6432;SDS011;3249;42.690;23.260;2024-02-04T06:35:21;4.30;;;3.97;;
6432;SDS011;3249;42.690;23.260;2024-02-04T06:37:53;5.13;;;4.60;;
6432;SDS011;3249;42.690;23.260;2024-02-04T06:40:23;5.43;;;4.47;;
6432;SDS011;3249;42.690;23.260;2024-02-04T06:42:52;6.27;;;4.13;;
6432;SDS011;3249;42.690;23.260;2024-02-04T06:45:21;4.60;;;4.20;;
6432;SDS011;3249;42.690;23.260;2024-02-04T06:47:50;4.33;;;4.00;;
6432;SDS011;3249;42.690;23.260;2024-02-04T06:50:20;4.43;;;4.07;;
6432;SDS011;3249;42.690;23.260;2024-02-04T06:52:49;4.37;;;4.03;;
6432;SDS011;3249;42.690;23.260;2024-02-04T06:55:21;4.53;;;4.23;;
6432;SDS011;3249;42.690;23.260;2024-02-04T06:57:51;4.27;;;3.97;;
6432;SDS011;3249;42.690;23.260;2024-02-04T07:00:20;4.90;;;4.50;;
6432;SDS011;3249;42.690;23.260;2024-02-04T07:02:49;4.40;;;4.10;;
6432;SDS011;3249;42.690;23.260;2024-02-04T07:05:19;5.43;;;3.43;;
6432;SDS011;3249;42.690;23.260;2024-02-04T07:07:50;4.43;;;4.13;;
6432;SDS011;3249;42.690;23.260;2024-02-04T07:10:23;4.13;;;3.83;;
6432;SDS011;3249;42.690;23.260;2024-02-04T07:12:52;3.80;;;3.50;;
6432;SDS011;3249;42.690;23.260;2024-02-04T07:15:21;4.93;;;4.07;;
6432;SDS011;3249;42.690;23.260;2024-02-04T07:17:52;3.90;;;3.60;;
6432;SDS011;3249;42.690;23.260;2024-02-04T07:20:21;6.53;;;4.23;;
6432;SDS011;3249;42.690;23.260;2024-02-04T07:22:50;4.70;;;4.30;;
6432;SDS011;3249;42.690;23.260;2024-02-04T07:25:20;5.83;;;4.37;;
6432;SDS011;3249;42.690;23.260;2024-02-04T07:27:52;4.00;;;3.70;;
6432;SDS011;3249;42.690;23.260;2024-02-04T07:30:22;4.87;;;4.27;;
6432;SDS011;3249;42.690;23.260;2024-02-04T07:32:51;4.10;;;3.70;;
6432;SDS011;3249;42.690;23.260;2024-02-04T07:35:21;4.07;;;3.77;;
6432;SDS011;3249;42.690;23.260;2024-02-04T07:37:51;4.53;;;4.23;;
6432;SDS011;3249;42.690;23.260;2024-02-04T07:40:23;4.00;;;3.73;;
6432;SDS011;3249;42.690;23.260;2024-02-04T07:42:53;4.07;;;3.70;;
6432;SDS011;3249;42.690;23.260;2024-02-04T07:45:23;4.20;;;3.90;;
6432;SDS011;3249;42.690;23.260;2024-02-04T07:47:52;3.90;;;3.70;;
6432;SDS011;3249;42.690;23.260;2024-02-04T07:50:21;4.33;;;4.03;;
6432;SDS011;3249;42.690;23.260;2024-02-04T07:52:51;5.47;;;3.73;;
6432;SDS011;3249;42.690;23.260;2024-02-04T07:55:23;4.57;;;4.17;;
6432;SDS011;3249;42.690;23.260;2024-02-04T07:57:52;3.97;;;3.67;;
6432;SDS011;3249;42.690;23.260;2024-02-04T08:00:21;4.60;;;4.17;;
6432;SDS011;3249;42.690;23.260;2024-02-04T08:02:51;4.67;;;4.27;;
6432;SDS011;3249;42.690;23.260;2024-02-04T08:05:20;4.17;;;3.77;;
6432;SDS011;3249;42.690;23.260;2024-02-04T08:07:49;4.73;;;4.33;;
6432;SDS011;3249;42.690;23.260;2024-02-04T08:10:19;4.17;;;3.87;;
6432;SDS011;3249;42.690;23.260;2024-02-04T08:12:51;4.00;;;3.60;;
6432;SDS011;3249;42.690;23.260;2024-02-04T08:15:20;4.67;;;4.17;;
6432;SDS011;3249;42.690;23.260;2024-02-04T08:17:50;3.60;;;3.40;;
6432;SDS011;3249;42.690;23.260;2024-02-04T08:20:19;4.00;;;3.50;;
6432;SDS011;3249;42.690;23.260;2024-02-04T08:22:48;4.40;;;4.10;;
6432;SDS011;3249;42.690;23.260;2024-02-04T08:25:19;4.30;;;3.57;;
6432;SDS011;3249;42.690;23.260;2024-02-04T08:27:52;3.97;;;3.57;;
6432;SDS011;3249;42.690;23.260;2024-02-04T08:30:21;3.20;;;3.00;;
6432;SDS011;3249;42.690;23.260;2024-02-04T08:32:53;4.90;;;3.50;;
6432;SDS011;3249;42.690;23.260;2024-02-04T08:35:48;4.50;;;3.17;;
6432;SDS011;3249;42.690;23.260;2024-02-04T08:38:26;3.57;;;3.20;;
6432;SDS011;3249;42.690;23.260;2024-02-04T08:41:12;3.73;;;3.50;;
6432;SDS011;3249;42.690;23.260;2024-02-04T08:43:44;4.43;;;4.13;;
6432;SDS011;3249;42.690;23.260;2024-02-04T08:46:13;4.50;;;3.40;;
6432;SDS011;3249;42.690;23.260;2024-02-04T08:48:42;4.03;;;3.73;;
6432;SDS011;3249;42.690;23.260;2024-02-04T08:51:12;5.97;;;3.63;;
6432;SDS011;3249;42.690;23.260;2024-02-04T08:53:43;4.57;;;3.67;;
6432;SDS011;3249;42.690;23.260;2024-02-04T08:56:13;5.93;;;4.03;;
6432;SDS011;3249;42.690;23.260;2024-02-04T08:58:45;4.27;;;3.30;;
6432;SDS011;3249;42.690;23.260;2024-02-04T09:01:15;3.80;;;3.50;;
6432;SDS011;3249;42.690;23.260;2024-02-04T09:03:44;4.40;;;3.27;;
6432;SDS011;3249;42.690;23.260;2024-02-04T09:06:13;3.50;;;3.30;;
6432;SDS011;3249;42.690;23.260;2024-02-04T09:08:42;4.20;;;3.90;;
6432;SDS011;3249;42.690;23.260;2024-02-04T09:11:12;4.43;;;4.10;;
6432;SDS011;3249;42.690;23.260;2024-02-04T09:13:48;4.73;;;3.97;;
6432;SDS011;3249;42.690;23.260;2024-02-04T09:16:17;4.77;;;3.70;;
6432;SDS011;3249;42.690;23.260;2024-02-04T09:18:46;3.20;;;3.00;;
6432;SDS011;3249;42.690;23.260;2024-02-04T09:21:15;4.30;;;3.90;;
6432;SDS011;3249;42.690;23.260;2024-02-04T09:23:45;4.30;;;3.90;;
6432;SDS011;3249;42.690;23.260;2024-02-04T09:26:15;3.00;;;2.80;;
6432;SDS011;3249;42.690;23.260;2024-02-04T09:28:44;4.80;;;4.03;;
6432;SDS011;3249;42.690;23.260;2024-02-04T09:31:16;3.97;;;3.47;;
6432;SDS011;3249;42.690;23.260;2024-02-04T09:33:45;4.43;;;4.03;;
6432;SDS011;3249;42.690;23.260;2024-02-04T09:36:15;3.30;;;3.00;;
6432;SDS011;3249;42.690;23.260;2024-02-04T09:38:44;3.13;;;2.93;;
6432;SDS011;3249;42.690;23.260;2024-02-04T09:41:13;3.60;;;3.40;;
6432;SDS011;3249;42.690;23.260;2024-02-04T09:43:45;3.90;;;3.60;;
6432;SDS011;3249;42.690;23.260;2024-02-04T09:46:18;3.37;;;3.17;;
6432;SDS011;3249;42.690;23.260;2024-02-04T09:48:48;5.93;;;3.33;;
6432;SDS011;3249;42.690;23.260;2024-02-04T09:51:21;5.07;;;3.33;;
6432;SDS011;3249;42.690;23.260;2024-02-04T09:53:51;4.57;;;3.30;;
6432;SDS011;3249;42.690;23.260;2024-02-04T09:56:21;3.83;;;3.53;;
6432;SDS011;3249;42.690;23.260;2024-02-04T09:58:53;4.17;;;3.40;;
6432;SDS011;3249;42.690;23.260;2024-02-04T10:01:27;3.40;;;3.13;;
6432;SDS011;3249;42.690;23.260;2024-02-04T10:03:56;3.40;;;3.20;;
6432;SDS011;3249;42.690;23.260;2024-02-04T10:06:25;3.93;;;3.30;;
6432;SDS011;3249;42.690;23.260;2024-02-04T10:08:54;2.97;;;2.77;;
6432;SDS011;3249;42.690;23.260;2024-02-04T10:11:27;3.00;;;2.80;;
6432;SDS011;3249;42.690;23.260;2024-02-04T10:13:56;2.43;;;2.33;;
6432;SDS011;3249;42.690;23.260;2024-02-04T10:16:28;3.23;;;2.57;;
6432;SDS011;3249;42.690;23.260;2024-02-04T10:18:59;2.43;;;2.30;;
6432;SDS011;3249;42.690;23.260;2024-02-04T10:21:30;2.87;;;2.67;;
6432;SDS011;3249;42.690;23.260;2024-02-04T10:23:59;3.53;;;2.80;;
6432;SDS011;3249;42.690;23.260;2024-02-04T10:26:29;2.43;;;2.23;;
6432;SDS011;3249;42.690;23.260;2024-02-04T10:29:00;3.47;;;3.20;;
6432;SDS011;3249;42.690;23.260;2024-02-04T10:31:33;2.40;;;2.30;;
6432;SDS011;3249;42.690;23.260;2024-02-04T10:34:02;3.07;;;2.80;;
6432;SDS011;3249;42.690;23.260;2024-02-04T10:36:36;2.87;;;2.67;;
6432;SDS011;3249;42.690;23.260;2024-02-04T10:39:05;4.17;;;2.73;;
6432;SDS011;3249;42.690;23.260;2024-02-04T10:41:35;3.33;;;3.10;;
6432;SDS011;3249;42.690;23.260;2024-02-04T10:44:12;3.33;;;3.07;;
6432;SDS011;3249;42.690;23.260;2024-02-04T10:46:48;3.60;;;3.30;;
6432;SDS011;3249;42.690;23.260;2024-02-04T10:49:19;3.20;;;2.90;;
6432;SDS011;3249;42.690;23.260;2024-02-04T10:51:49;2.70;;;2.50;;
6432;SDS011;3249;42.690;23.260;2024-02-04T10:54:19;6.53;;;3.03;;
6432;SDS011;3249;42.690;23.260;2024-02-04T10:56:54;3.07;;;2.87;;
6432;SDS011;3249;42.690;23.260;2024-02-04T10:59:27;3.10;;;2.87;;
6432;SDS011;3249;42.690;23.260;2024-02-04T11:02:03;3.07;;;2.87;;
6432;SDS011;3249;42.690;23.260;2024-02-04T11:04:34;3.30;;;3.03;;
6432;SDS011;3249;42.690;23.260;2024-02-04T11:07:06;3.30;;;3.03;;
6432;SDS011;3249;42.690;23.260;2024-02-04T11:09:36;3.30;;;3.10;;
6432;SDS011;3249;42.690;23.260;2024-02-04T11:12:08;3.57;;;3.23;;
6432;SDS011;3249;42.690;23.260;2024-02-04T11:14:40;3.23;;;2.90;;
6432;SDS011;3249;42.690;23.260;2024-02-04T11:20:28;2.40;;;2.30;;
6432;SDS011;3249;42.690;23.260;2024-02-04T11:23:26;2.53;;;2.43;;
6432;SDS011;3249;42.690;23.260;2024-02-04T11:26:05;2.63;;;2.53;;
6432;SDS011;3249;42.690;23.260;2024-02-04T11:28:35;2.23;;;2.13;;
6432;SDS011;3249;42.690;23.260;2024-02-04T11:31:09;4.10;;;2.27;;
6432;SDS011;3249;42.690;23.260;2024-02-04T11:33:45;2.70;;;2.50;;
6432;SDS011;3249;42.690;23.260;2024-02-04T11:36:17;3.30;;;3.03;;
6432;SDS011;3249;42.690;23.260;2024-02-04T11:38:47;2.70;;;2.50;;
6432;SDS011;3249;42.690;23.260;2024-02-04T11:41:21;3.30;;;3.10;;
6432;SDS011;3249;42.690;23.260;2024-02-04T11:43:53;3.90;;;2.80;;
6432;SDS011;3249;42.690;23.260;2024-02-04T11:46:27;4.23;;;3.37;;
6432;SDS011;3249;42.690;23.260;2024-02-04T11:48:58;4.83;;;2.80;;
6432;SDS011;3249;42.690;23.260;2024-02-04T11:51:35;4.50;;;4.20;;
6432;SDS011;3249;42.690;23.260;2024-02-04T11:54:04;3.20;;;3.00;;
6432;SDS011;3249;42.690;23.260;2024-02-04T11:56:33;2.90;;;2.70;;
6432;SDS011;3249;42.690;23.260;2024-02-04T11:59:04;2.83;;;2.63;;
6432;SDS011;3249;42.690;23.260;2024-02-04T12:01:35;3.30;;;3.00;;
6432;SDS011;3249;42.690;23.260;2024-02-04T12:04:12;3.10;;;2.90;;
6432;SDS011;3249;42.690;23.260;2024-02-04T12:06:45;3.07;;;2.87;;
6432;SDS011;3249;42.690;23.260;2024-02-04T12:09:16;3.43;;;2.77;;
6432;SDS011;3249;42.690;23.260;2024-02-04T12:11:48;3.57;;;3.30;;
6432;SDS011;3249;42.690;23.260;2024-02-04T12:14:17;3.47;;;3.20;;
6432;SDS011;3249;42.690;23.260;2024-02-04T12:16:47;3.57;;;3.37;;
6432;SDS011;3249;42.690;23.260;2024-02-04T12:19:17;3.70;;;3.40;;
6432;SDS011;3249;42.690;23.260;2024-02-04T12:21:49;3.50;;;3.20;;
6432;SDS011;3249;42.690;23.260;2024-02-04T12:24:21;3.03;;;2.93;;
6432;SDS011;3249;42.690;23.260;2024-02-04T12:26:51;3.73;;;3.33;;
6432;SDS011;3249;42.690;23.260;2024-02-04T12:29:20;3.33;;;3.17;;
6432;SDS011;3249;42.690;23.260;2024-02-04T12:31:57;9.37;;;3.80;;
6432;SDS011;3249;42.690;23.260;2024-02-04T12:34:29;4.23;;;3.77;;
6432;SDS011;3249;42.690;23.260;2024-02-04T12:37:02;3.33;;;3.13;;
6432;SDS011;3249;42.690;23.260;2024-02-04T12:39:32;3.20;;;3.00;;
6432;SDS011;3249;42.690;23.260;2024-02-04T12:42:01;3.70;;;3.50;;
6432;SDS011;3249;42.690;23.260;2024-02-04T12:44:31;3.60;;;3.33;;
6432;SDS011;3249;42.690;23.260;2024-02-04T12:47:00;4.50;;;3.00;;
6432;SDS011;3249;42.690;23.260;2024-02-04T12:49:30;3.40;;;3.23;;
6432;SDS011;3249;42.690;23.260;2024-02-04T12:52:08;3.20;;;3.00;;
6432;SDS011;3249;42.690;23.260;2024-02-04T12:54:41;3.83;;;3.33;;
6432;SDS011;3249;42.690;23.260;2024-02-04T12:57:21;3.20;;;3.00;;
6432;SDS011;3249;42.690;23.260;2024-02-04T12:59:51;3.20;;;3.00;;
6432;SDS011;3249;42.690;23.260;2024-02-04T13:02:20;3.50;;;3.20;;
6432;SDS011;3249;42.690;23.260;2024-02-04T13:04:49;3.60;;;3.30;;
6432;SDS011;3249;42.690;23.260;2024-02-04T13:07:22;3.30;;;3.10;;
6432;SDS011;3249;42.690;23.260;2024-02-04T13:09:57;3.30;;;3.10;;
6432;SDS011;3249;42.690;23.260;2024-02-04T13:12:27;7.13;;;3.37;;
6432;SDS011;3249;42.690;23.260;2024-02-04T13:14:58;3.57;;;3.37;;
6432;SDS011;3249;42.690;23.260;2024-02-04T13:17:32;2.60;;;2.50;;
6432;SDS011;3249;42.690;23.260;2024-02-04T13:20:01;4.00;;;3.80;;
6432;SDS011;3249;42.690;23.260;2024-02-04T13:22:33;3.87;;;3.67;;
6432;SDS011;3249;42.690;23.260;2024-02-04T13:25:05;3.00;;;2.80;;
6432;SDS011;3249;42.690;23.260;2024-02-04T13:27:36;3.73;;;3.53;;
6432;SDS011;3249;42.690;23.260;2024-02-04T13:30:06;3.80;;;3.50;;
6432;SDS011;3249;42.690;23.260;2024-02-04T13:32:38;3.47;;;3.17;;
6432;SDS011;3249;42.690;23.260;2024-02-04T13:35:09;3.27;;;3.13;;
6432;SDS011;3249;42.690;23.260;2024-02-04T13:37:46;4.97;;;3.60;;
6432;SDS011;3249;42.690;23.260;2024-02-04T13:40:17;3.63;;;3.27;;
6432;SDS011;3249;42.690;23.260;2024-02-04T13:42:47;4.00;;;3.70;;
6432;SDS011;3249;42.690;23.260;2024-02-04T13:45:17;4.30;;;4.00;;
6432;SDS011;3249;42.690;23.260;2024-02-04T13:47:46;4.93;;;3.53;;
6432;SDS011;3249;42.690;23.260;2024-02-04T13:50:17;4.10;;;3.80;;
6432;SDS011;3249;42.690;23.260;2024-02-04T13:52:49;4.47;;;4.07;;
6432;SDS011;3249;42.690;23.260;2024-02-04T13:55:18;6.03;;;3.50;;
6432;SDS011;3249;42.690;23.260;2024-02-04T13:57:48;3.57;;;3.37;;
6432;SDS011;3249;42.690;23.260;2024-02-04T14:00:17;3.30;;;3.10;;
6432;SDS011;3249;42.690;23.260;2024-02-04T14:02:48;4.80;;;4.30;;
6432;SDS011;3249;42.690;23.260;2024-02-04T14:05:20;4.07;;;3.77;;
6432;SDS011;3249;42.690;23.260;2024-02-04T14:07:53;3.70;;;3.40;;
6432;SDS011;3249;42.690;23.260;2024-02-04T14:10:22;3.50;;;3.27;;
6432;SDS011;3249;42.690;23.260;2024-02-04T14:12:52;4.57;;;3.70;;
6432;SDS011;3249;42.690;23.260;2024-02-04T14:15:23;3.87;;;3.57;;
6432;SDS011;3249;42.690;23.260;2024-02-04T14:21:01;4.70;;;4.30;;
6432;SDS011;3249;42.690;23.260;2024-02-04T14:23:57;3.40;;;3.20;;
6432;SDS011;3249;42.690;23.260;2024-02-04T14:26:41;4.53;;;4.13;;
6432;SDS011;3249;42.690;23.260;2024-02-04T14:29:11;3.93;;;3.63;;
6432;SDS011;3249;42.690;23.260;2024-02-04T14:31:45;3.53;;;3.23;;
6432;SDS011;3249;42.690;23.260;2024-02-04T14:34:15;5.50;;;3.23;;
6432;SDS011;3249;42.690;23.260;2024-02-04T14:36:45;3.57;;;3.00;;
6432;SDS011;3249;42.690;23.260;2024-02-04T14:39:16;4.10;;;3.50;;
6432;SDS011;3249;42.690;23.260;2024-02-04T14:41:46;4.27;;;3.57;;
6432;SDS011;3249;42.690;23.260;2024-02-04T14:44:15;3.80;;;3.50;;
6432;SDS011;3249;42.690;23.260;2024-02-04T14:46:44;4.60;;;3.33;;
6432;SDS011;3249;42.690;23.260;2024-02-04T14:49:15;6.47;;;4.13;;
6432;SDS011;3249;42.690;23.260;2024-02-04T14:51:44;3.83;;;3.53;;
6432;SDS011;3249;42.690;23.260;2024-02-04T14:54:13;3.83;;;3.60;;
6432;SDS011;3249;42.690;23.260;2024-02-04T14:56:45;4.83;;;4.13;;
6432;SDS011;3249;42.690;23.260;2024-02-04T14:59:19;5.60;;;4.30;;
6432;SDS011;3249;42.690;23.260;2024-02-04T15:01:48;4.63;;;4.13;;
6432;SDS011;3249;42.690;23.260;2024-02-04T15:04:20;3.73;;;3.53;;
6432;SDS011;3249;42.690;23.260;2024-02-04T15:06:50;4.30;;;4.00;;
6432;SDS011;3249;42.690;23.260;2024-02-04T15:09:22;6.00;;;3.60;;
6432;SDS011;3249;42.690;23.260;2024-02-04T15:11:52;5.90;;;4.20;;
6432;SDS011;3249;42.690;23.260;2024-02-04T15:14:22;5.63;;;5.10;;
6432;SDS011;3249;42.690;23.260;2024-02-04T15:16:52;8.87;;;6.57;;
6432;SDS011;3249;42.690;23.260;2024-02-04T15:19:23;6.23;;;5.57;;
6432;SDS011;3249;42.690;23.260;2024-02-04T15:21:54;5.27;;;4.77;;
6432;SDS011;3249;42.690;23.260;2024-02-04T15:24:27;4.20;;;3.87;;
6432;SDS011;3249;42.690;23.260;2024-02-04T15:26:56;4.50;;;4.10;;
6432;SDS011;3249;42.690;23.260;2024-02-04T15:29:32;5.80;;;4.70;;